Terminal Aerodrome Forecast
Issued by NWS

Home | Current Version | Previous Version | Text Only | Print | Product List | Glossary On
Versions: 1 2 3 4 5 6 7 8 9 10 11 12
598
FTUS43 KLSX 261139
TAFCPS
TAF
KCPS 261139Z 2612/2712 VRB04KT P6SM SCT250
     FM261600 21007KT P6SM SCT050 BKN120
     FM270000 30006KT P6SM SCT050 BKN100
     FM270900 34007KT P6SM BKN030=

USA.gov is the U.S. government's official web portal to all federal, state and local government web resources and services.